1996 BONITA (1996001S08075)


On this page: IBTrACS data - Map and Plots - Positions - Intensities - Original source data

Summary

Start Dec 31
End Jan 15
Basin SI
LMI 135 kt
Sources jtwc_sh
reunion
neumann
In WMO? Yes
Previous storm 1996 B29596 (SI)
Previous in basin 1996 B29596 (SI)
Concurrent storms 1995 DAN (WP)
1996 BONITA (SI)
1996 BARRY (SI)
1996 CORYNA (SI)
1996 TASI (SP)
Next in basin 1996 BARRY (SI)
Next storm 1996 BARRY (SI)

top of page IBTrACS Data: File Access

top of page HURSAT Data: File Access

Image of storm

top of page Plots:

Map of storm track will not appear if FTP is down
Time series of cyclone Maximum Sustained Wind will not appear if FTP is down
Time series of cyclone Minimum Central Pressure will not appear if FTP is down

top of page Track Data:Position

jtwc_sh reunion neumann
Date Lat Lon Lat Lon Lat Lon
1995-12-31 18:00:00 -8.0 75.0 -8.0 75.0
1996-01-01 00:00:00 -8.4 74.6 -8.4 74.6
1996-01-01 06:00:00 -8.7 74.4 -8.7 74.4
1996-01-01 12:00:00 -9.0 74.1 -9.0 74.1
1996-01-01 18:00:00 -9.3 73.8 -9.3 73.8
1996-01-02 00:00:00 -9.6 73.3 -9.6 73.3
1996-01-02 06:00:00 -9.8 72.9 -9.8 72.9
1996-01-02 12:00:00 -10.2 72.4 -10.2 72.4
1996-01-02 18:00:00 -10.5 72.0 -10.5 72.0
1996-01-03 00:00:00 -10.8 71.7 -10.8 71.7
1996-01-03 06:00:00 -11.1 71.5 -11.1 71.5
1996-01-03 12:00:00 -11.4 71.3 -11.4 70.9 -11.4 71.3
1996-01-03 18:00:00 -11.6 71.2 -12.0 71.2 -11.6 71.2
1996-01-04 00:00:00 -11.8 71.1 -12.2 71.4 -11.8 71.1
1996-01-04 06:00:00 -12.1 71.0 -12.4 71.3 -12.1 71.0
1996-01-04 12:00:00 -12.4 70.9 -12.6 71.0 -12.4 70.9
1996-01-04 18:00:00 -12.7 70.8 -12.8 70.6 -12.7 70.8
1996-01-05 00:00:00 -13.1 70.6 -13.0 70.3 -13.1 70.6
1996-01-05 06:00:00 -13.6 70.2 -13.2 69.8 -13.6 70.2
1996-01-05 12:00:00 -14.0 69.6 -13.4 69.3 -14.0 69.6
1996-01-05 18:00:00 -14.4 68.9 -13.8 68.6 -14.4 68.9
1996-01-06 00:00:00 -14.6 68.0 -14.2 67.6 -14.6 68.0
1996-01-06 06:00:00 -14.7 66.9 -14.4 66.7 -14.7 66.9
1996-01-06 12:00:00 -14.8 65.7 -14.7 65.7 -14.8 65.7
1996-01-06 18:00:00 -14.9 64.4 -14.9 64.6 -14.9 64.4
jtwc_sh reunion neumann
1996-01-07 00:00:00 -15.3 63.2 -15.0 63.5 -15.3 63.2
1996-01-07 06:00:00 -15.7 62.4 -15.6 62.3 -15.7 62.4
1996-01-07 12:00:00 -16.2 61.4 -16.3 61.2 -16.2 61.4
1996-01-07 18:00:00 -16.4 60.5 -16.7 60.5 -16.4 60.5
1996-01-08 00:00:00 -16.8 59.5 -17.2 59.5 -16.8 59.5
1996-01-08 06:00:00 -17.4 58.8 -17.7 58.4 -17.4 58.8
1996-01-08 12:00:00 -17.8 57.8 -18.0 57.5 -17.8 57.8
1996-01-08 18:00:00 -18.2 56.6 -18.1 56.6 -18.2 56.6
1996-01-09 00:00:00 -18.5 55.5 -18.2 55.8 -18.5 55.5
1996-01-09 06:00:00 -18.6 54.9 -18.5 55.0 -18.6 54.9
1996-01-09 12:00:00 -18.7 54.3 -18.6 54.2 -18.7 54.3
1996-01-09 18:00:00 -18.6 53.4 -18.6 53.4 -18.6 53.4
1996-01-10 00:00:00 -18.5 52.6 -18.5 52.7 -18.5 52.6
1996-01-10 06:00:00 -18.4 52.0 -18.3 52.0 -18.4 52.0
1996-01-10 12:00:00 -18.2 51.3 -18.0 51.2 -18.2 51.3
1996-01-10 18:00:00 -17.9 50.6 -17.8 50.3 -17.9 50.6
1996-01-11 00:00:00 -17.5 49.3 -17.6 49.2 -17.5 49.3
1996-01-11 06:00:00 -17.2 47.9 -17.3 47.8 -17.2 47.9
1996-01-11 12:00:00 -17.0 46.5 -17.2 45.9 -17.0 46.5
1996-01-11 18:00:00 -16.9 45.0 -17.1 44.4 -16.9 45.0
1996-01-12 00:00:00 -16.8 43.7 -17.1 43.4 -16.8 43.7
1996-01-12 06:00:00 -17.0 42.5 -17.1 42.5 -17.0 42.5
1996-01-12 12:00:00 -17.2 41.5 -17.3 41.6 -17.2 41.5
1996-01-12 18:00:00 -17.5 40.7 -17.4 40.8 -17.5 40.7
jtwc_sh reunion neumann
1996-01-13 00:00:00 -17.6 39.8 -17.5 40.0 -17.6 39.8
1996-01-13 06:00:00 -17.6 38.9 -17.5 39.0 -17.6 38.9
1996-01-13 12:00:00 -17.6 38.3 -17.5 38.3 -17.6 38.3
1996-01-13 18:00:00 -17.8 37.5 -17.5 37.6 -17.8 37.5
1996-01-14 00:00:00 -18.0 36.7 -17.8 36.5 -18.0 36.7
1996-01-14 06:00:00 -18.3 35.9 -18.2 35.8 -18.3 35.9
1996-01-14 12:00:00 -18.6 35.6 -18.8 35.9 -18.6 35.6
1996-01-14 18:00:00 -18.9 35.3 -19.0 35.5 -18.9 35.3
1996-01-15 00:00:00 -19.1 34.8 -19.0 34.9 -19.1 34.8
1996-01-15 06:00:00 -19.3 34.3 -19.1 34.1 -19.3 34.3

top of pageTrack Data:Intensity

jtwc_sh reunion neumann
Date Wind Pres Wind Pres Wind Pres
1995-12-31 18:00:00 15. 15.
1996-01-01 00:00:00 15. 15.
1996-01-01 06:00:00 15. 15.
1996-01-01 12:00:00 15. 15.
1996-01-01 18:00:00 20. 20.
1996-01-02 00:00:00 20. 20.
1996-01-02 06:00:00 20. 20.
1996-01-02 12:00:00 20. 20.
1996-01-02 18:00:00 20. 20.
1996-01-03 00:00:00 20. 20.
1996-01-03 06:00:00 25. 25.
1996-01-03 12:00:00 25. 25. 1000. 25.
1996-01-03 18:00:00 25. 25. 1002. 25.
1996-01-04 00:00:00 25. 25. 1002. 25.
1996-01-04 06:00:00 25. 25. 1002. 25.
1996-01-04 12:00:00 25. 25. 1002. 25.
1996-01-04 18:00:00 25. 25. 1000. 25.
1996-01-05 00:00:00 25. 30. 997. 25.
1996-01-05 06:00:00 30. 30. 997. 30.
1996-01-05 12:00:00 30. 30. 995. 30.
1996-01-05 18:00:00 30. 35. 992. 30.
1996-01-06 00:00:00 30. 35. 990. 30.
1996-01-06 06:00:00 35. 40. 990. 35.
1996-01-06 12:00:00 35. 45. 985. 35.
1996-01-06 18:00:00 35. 50. 980. 35.
jtwc_sh reunion neumann
1996-01-07 00:00:00 45. 52. 975. 45.
1996-01-07 06:00:00 55. 55. 970. 55.
1996-01-07 12:00:00 60. 60. 965. 60.
1996-01-07 18:00:00 75. 60. 965. 75.
1996-01-08 00:00:00 90. 65. 960. 90.
1996-01-08 06:00:00 100. 75. 950. 100.
1996-01-08 12:00:00 115. 85. 940. 115.
1996-01-08 18:00:00 115. 100. 920. 115.
1996-01-09 00:00:00 120. 100. 920. 120.
1996-01-09 06:00:00 130. 95. 925. 130.
1996-01-09 12:00:00 135. 90. 930. 135.
1996-01-09 18:00:00 135. 85. 935. 135.
1996-01-10 00:00:00 135. 85. 935. 135.
1996-01-10 06:00:00 130. 80. 945. 130.
1996-01-10 12:00:00 125. 80. 945. 125.
1996-01-10 18:00:00 115. 80. 945. 115.
1996-01-11 00:00:00 110. 110.
1996-01-11 06:00:00 100. 100.
1996-01-11 12:00:00 75. 75.
1996-01-11 18:00:00 65. 65.
1996-01-12 00:00:00 65. 35. 990. 65.
1996-01-12 06:00:00 45. 35. 990. 45.
1996-01-12 12:00:00 55. 35. 990. 55.
1996-01-12 18:00:00 55. 35. 990. 55.
jtwc_sh reunion neumann
1996-01-13 00:00:00 55. 40. 988. 55.
1996-01-13 06:00:00 65. 45. 985. 65.
1996-01-13 12:00:00 75. 50. 980. 75.
1996-01-13 18:00:00 75. 50. 980. 75.
1996-01-14 00:00:00 70. 70.
1996-01-14 06:00:00 65. 65.
1996-01-14 12:00:00 55. 55.
1996-01-14 18:00:00 45. 45.
1996-01-15 00:00:00 40. 40.
1996-01-15 06:00:00 25. 25.

top of page Links to source data

Source Source file Format
jtwc_sh bsh061996.txt ATCF
reunion WMO-Best-Tracks.txt:Line=17256:bonita WMO (old format)
neumann tracks.sh:Storm=1042:BONITA:BSH061996:JTWC HURDAT